createdAt,value
2022-12-19T00:06:10.945Z,1.4
2022-12-19T00:16:11.707Z,1.5
2022-12-19T00:26:12.391Z,1.6
2022-12-19T00:36:13.160Z,1.7
2022-12-19T00:46:13.846Z,1.7
2022-12-19T00:56:13.879Z,1.8
2022-12-19T01:06:14.641Z,1.8
2022-12-19T01:16:15.730Z,1.9
2022-12-19T01:26:16.376Z,2
2022-12-19T01:36:16.560Z,2.2
2022-12-19T01:46:16.688Z,2.3
2022-12-19T01:56:17.442Z,2.4
2022-12-19T02:16:18.384Z,2.7
2022-12-19T02:36:19.370Z,2.9
2022-12-19T02:46:20.153Z,3.1
2022-12-19T02:56:20.548Z,3.2
2022-12-19T03:06:20.798Z,3.4
2022-12-19T03:16:21.583Z,3.5
2022-12-19T03:36:22.763Z,3.9
2022-12-19T03:56:24.163Z,4
2022-12-19T04:06:25.179Z,4.1
2022-12-19T04:16:25.631Z,4.2
2022-12-19T04:26:26.643Z,4.1
2022-12-19T04:36:27.542Z,4.2
2022-12-19T04:46:27.822Z,4.3
2022-12-19T05:16:29.431Z,4.1
2022-12-19T05:26:29.444Z,4.2
2022-12-19T05:36:32.539Z,4.3
2022-12-19T05:46:31.015Z,4.4
2022-12-19T05:56:31.103Z,4.5
2022-12-19T06:06:31.828Z,4.4
2022-12-19T06:26:33.332Z,4.6
2022-12-19T06:36:34.283Z,4.6
2022-12-19T06:46:34.862Z,4.6
2022-12-19T06:56:34.904Z,4.7
2022-12-19T07:06:35.871Z,4.8
2022-12-19T07:26:37.623Z,5.1
2022-12-19T07:36:38.287Z,5.3
2022-12-19T07:46:38.648Z,5.6
2022-12-19T07:56:45.781Z,5.7
2022-12-19T08:06:46.199Z,5.8
2022-12-19T08:16:55.912Z,5.7
2022-12-19T08:26:43.262Z,5.8
2022-12-19T08:36:41.133Z,5.9
2022-12-19T08:46:45.065Z,6
2022-12-19T08:56:46.650Z,6
2022-12-19T09:06:42.875Z,6.1
2022-12-19T09:16:43.394Z,6.2
2022-12-19T09:26:43.697Z,6.5
2022-12-19T09:46:44.292Z,7
2022-12-19T10:07:16.553Z,7.3
2022-12-19T10:17:01.973Z,7.4
2022-12-19T10:37:12.730Z,7.6
2022-12-19T10:46:47.457Z,7.6
2022-12-19T10:56:48.324Z,7.6
2022-12-19T11:18:53.101Z,7.8
2022-12-19T11:30:22.404Z,7.8
2022-12-19T11:36:49.881Z,7.7
2022-12-19T11:46:50.928Z,7.8
2022-12-19T11:56:58.229Z,7.7
2022-12-19T12:06:51.508Z,7.9
2022-12-19T12:20:40.188Z,8.1
2022-12-19T13:06:54.473Z,8.2
2022-12-19T13:17:02.567Z,8.4
2022-12-19T13:26:55.837Z,8.4
2022-12-19T13:39:53.845Z,8.5
2022-12-19T13:56:56.762Z,8.5
2022-12-19T14:06:57.473Z,8.5
2022-12-19T14:16:58.271Z,8.5
2022-12-19T14:51:00.419Z,8.5
2022-12-19T14:57:01.611Z,8.4
2022-12-19T15:07:06.180Z,8.3
2022-12-19T15:17:02.653Z,8.3
2022-12-19T15:27:10.179Z,8.3
2022-12-19T15:37:04.162Z,8.4
2022-12-19T15:47:04.626Z,8.4
2022-12-19T15:57:04.880Z,8.5
2022-12-19T16:07:05.480Z,8.4
2022-12-19T16:27:05.654Z,8.6
2022-12-19T16:37:13.063Z,8.6
2022-12-19T16:47:06.522Z,8.6
2022-12-19T16:57:06.904Z,8.8
2022-12-19T17:07:07.648Z,8.9
2022-12-19T17:17:07.827Z,8.9
2022-12-19T17:27:14.961Z,9
2022-12-19T17:37:08.914Z,9
2022-12-19T17:47:09.535Z,9.1
2022-12-19T17:57:09.950Z,9.2
2022-12-19T18:07:10.921Z,9.3
2022-12-19T18:17:11.525Z,9.3
2022-12-19T18:27:11.936Z,9.4
2022-12-19T18:37:12.079Z,9.2
2022-12-19T18:47:12.267Z,9.3
2022-12-19T18:57:13.145Z,9.2
2022-12-19T19:17:14.586Z,9.3
2022-12-19T19:27:15.457Z,9.3
2022-12-19T19:37:16.295Z,9.4
2022-12-19T19:47:17.089Z,9.5
2022-12-19T19:57:17.772Z,9.5
2022-12-19T20:07:18.666Z,9.8
2022-12-19T20:17:19.295Z,10
2022-12-19T20:37:20.400Z,10
2022-12-19T20:47:20.547Z,9.9
2022-12-19T20:57:20.660Z,9.8
2022-12-19T21:07:20.862Z,9.9
2022-12-19T21:17:21.376Z,10.1
2022-12-19T21:27:22.353Z,10.2
2022-12-19T21:37:30.321Z,10.2
2022-12-19T21:47:23.528Z,10.1
2022-12-19T21:57:30.797Z,10.1
2022-12-19T22:07:31.662Z,10.3
2022-12-19T22:27:26.448Z,10.3
2022-12-19T22:27:31.729Z,10.3
2022-12-19T22:37:39.466Z,10.4
2022-12-19T22:47:40.309Z,10.3
2022-12-19T22:57:47.984Z,10.4
2022-12-19T23:07:34.415Z,10.3
2022-12-19T23:27:42.202Z,10.5
2022-12-19T23:37:35.572Z,10.6
2022-12-19T23:47:36.530Z,10.8
2022-12-19T23:57:37.574Z,10.9
